createdAt,value
2018-05-12T00:00:04.874Z,66.50
2018-05-12T00:02:31.716Z,66.40
2018-05-12T00:04:58.949Z,66.20
2018-05-12T00:07:25.901Z,66.70
2018-05-12T00:09:52.875Z,67.70
2018-05-12T00:12:19.072Z,67.60
2018-05-12T00:14:46.046Z,68.70
2018-05-12T00:17:13.445Z,68.60
2018-05-12T00:19:39.673Z,69.20
2018-05-12T00:22:05.859Z,70.10
2018-05-12T00:24:39.946Z,70.10
2018-05-12T00:27:07.438Z,69.50
2018-05-12T00:29:34.208Z,69.40
2018-05-12T00:32:01.052Z,69.10
2018-05-12T00:34:27.292Z,68.60
2018-05-12T00:36:54.013Z,68.60
2018-05-12T00:39:20.803Z,68.20
2018-05-12T00:41:47.619Z,68.60
2018-05-12T00:44:14.569Z,68.60
2018-05-12T00:46:41.588Z,68.80
2018-05-12T00:49:08.124Z,68.80
2018-05-12T00:51:35.064Z,68.70
2018-05-12T00:54:01.454Z,68.70
2018-05-12T00:56:27.738Z,68.60
2018-05-12T00:58:53.985Z,68.60
2018-05-12T01:01:21.635Z,68.50
2018-05-12T01:03:48.112Z,68.50
2018-05-12T01:06:15.141Z,69.10
2018-05-12T01:08:42.964Z,69.40
2018-05-12T01:11:10.478Z,69.10
2018-05-12T01:13:36.754Z,69.10
2018-05-12T01:16:03.965Z,69.60
2018-05-12T01:18:30.341Z,69.40
2018-05-12T01:20:57.191Z,70.10
2018-05-12T01:23:24.390Z,69.60
2018-05-12T01:25:52.603Z,70.20
2018-05-12T01:28:19.404Z,70.20
2018-05-12T01:30:45.962Z,70.20
2018-05-12T01:33:13.825Z,70.70
2018-05-12T01:35:41.779Z,70.10
2018-05-12T01:38:07.978Z,70.00
2018-05-12T01:40:35.645Z,70.30
2018-05-12T01:43:02.148Z,70.20
2018-05-12T01:45:29.125Z,70.60
2018-05-12T01:47:55.363Z,70.60
2018-05-12T01:50:21.581Z,70.70
2018-05-12T01:52:48.450Z,71.00
2018-05-12T01:55:14.648Z,71.90
2018-05-12T01:57:42.537Z,71.60
2018-05-12T02:00:08.749Z,71.50
2018-05-12T02:02:35.147Z,71.60
2018-05-12T02:05:01.619Z,71.80
2018-05-12T02:07:29.038Z,72.00
2018-05-12T02:09:55.621Z,71.80
2018-05-12T02:12:23.271Z,72.10
2018-05-12T02:14:49.501Z,72.10
2018-05-12T02:17:16.858Z,72.20
2018-05-12T02:19:44.206Z,71.90
2018-05-12T02:22:11.024Z,71.90
2018-05-12T02:24:37.971Z,72.30
2018-05-12T02:27:05.030Z,72.60
2018-05-12T02:29:31.953Z,72.80
2018-05-12T02:31:58.403Z,72.80
2018-05-12T02:34:24.643Z,72.50
2018-05-12T02:36:50.846Z,72.70
2018-05-12T02:39:17.778Z,72.60
2018-05-12T02:41:43.982Z,72.50
2018-05-12T02:44:10.192Z,72.50
2018-05-12T02:46:37.059Z,72.40
2018-05-12T02:49:03.836Z,72.60
2018-05-12T02:51:30.986Z,72.70
2018-05-12T02:53:58.348Z,73.50
2018-05-12T02:56:25.414Z,73.50
2018-05-12T02:58:51.643Z,73.50
2018-05-12T03:01:19.366Z,73.70
2018-05-12T03:03:46.856Z,72.90
2018-05-12T03:06:13.714Z,72.90
2018-05-12T03:08:41.391Z,73.20
2018-05-12T03:11:08.187Z,73.10
2018-05-12T03:13:35.413Z,73.60
2018-05-12T03:16:03.139Z,73.90
2018-05-12T03:18:30.712Z,73.20
2018-05-12T03:20:57.955Z,73.10
2018-05-12T03:23:24.647Z,72.90
2018-05-12T03:25:51.221Z,73.40
2018-05-12T03:28:17.678Z,73.40
2018-05-12T03:30:44.795Z,73.60
2018-05-12T03:33:11.224Z,73.50
2018-05-12T03:35:37.424Z,73.20
2018-05-12T03:38:04.635Z,75.00
2018-05-12T03:40:31.612Z,74.50
2018-05-12T03:42:58.965Z,76.90
2018-05-12T03:45:26.103Z,76.80
2018-05-12T03:47:52.782Z,78.10
2018-05-12T03:50:20.813Z,79.10
2018-05-12T03:52:47.558Z,79.10
2018-05-12T03:55:15.146Z,78.10
2018-05-12T03:57:41.657Z,78.00
2018-05-12T04:00:10.181Z,77.40
2018-05-12T04:02:36.476Z,77.40
2018-05-12T04:05:16.779Z,77.50
2018-05-12T04:08:06.682Z,77.50
2018-05-12T04:10:42.189Z,77.50
2018-05-12T04:13:10.515Z,78.30
2018-05-12T04:15:38.134Z,78.20
2018-05-12T04:18:05.707Z,78.60
2018-05-12T04:20:32.769Z,78.60
2018-05-12T04:23:00.084Z,78.60
2018-05-12T04:25:26.620Z,77.00
2018-05-12T04:27:53.878Z,76.90
2018-05-12T04:30:20.094Z,76.90
2018-05-12T04:32:46.856Z,77.20
2018-05-12T04:35:13.643Z,76.80
2018-05-12T04:37:40.401Z,76.60
2018-05-12T04:40:08.309Z,74.40
2018-05-12T04:42:35.378Z,74.30
2018-05-12T04:45:02.445Z,74.30
2018-05-12T04:47:29.414Z,73.20
2018-05-12T04:49:55.662Z,73.10
2018-05-12T04:52:22.015Z,72.30
2018-05-12T04:54:50.214Z,71.40
2018-05-12T04:57:16.392Z,71.20
2018-05-12T04:59:42.845Z,70.50
2018-05-12T05:02:09.808Z,68.00
2018-05-12T05:04:36.022Z,67.90
2018-05-12T05:07:02.832Z,67.80
2018-05-12T05:09:29.746Z,65.60
2018-05-12T05:11:56.687Z,63.50
2018-05-12T05:14:23.504Z,63.30
2018-05-12T05:16:50.223Z,63.50
2018-05-12T05:19:16.409Z,64.00
2018-05-12T05:21:43.880Z,64.40
2018-05-12T05:24:10.083Z,64.30
2018-05-12T05:26:37.675Z,64.80
2018-05-12T05:29:04.710Z,64.60
2018-05-12T05:31:32.315Z,63.90
2018-05-12T05:33:59.196Z,63.90
2018-05-12T05:36:26.746Z,64.90
2018-05-12T05:38:53.206Z,64.70
2018-05-12T05:41:20.347Z,64.70
2018-05-12T05:43:47.295Z,64.60
2018-05-12T05:46:14.713Z,63.20
2018-05-12T05:48:42.625Z,64.10
2018-05-12T05:51:09.294Z,64.10
2018-05-12T05:53:36.887Z,63.10
2018-05-12T05:56:03.649Z,63.10
2018-05-12T05:58:31.172Z,61.50
2018-05-12T06:00:58.338Z,61.70
2018-05-12T06:03:24.608Z,62.40
2018-05-12T06:05:50.825Z,61.90
2018-05-12T06:08:18.071Z,62.30
2018-05-12T06:10:45.933Z,62.50
2018-05-12T06:13:12.910Z,62.40
2018-05-12T06:15:39.105Z,62.50
2018-05-12T06:18:06.075Z,61.40
2018-05-12T06:20:32.303Z,61.40
2018-05-12T06:22:58.525Z,59.80
2018-05-12T06:25:24.848Z,59.30
2018-05-12T06:27:51.761Z,59.30
2018-05-12T06:30:18.526Z,58.90
2018-05-12T06:32:45.851Z,57.70
2018-05-12T06:35:12.832Z,58.30
2018-05-12T06:37:39.212Z,58.30
2018-05-12T06:40:05.639Z,57.60
2018-05-12T06:42:32.465Z,57.80
2018-05-12T06:44:58.834Z,56.30
2018-05-12T06:47:25.871Z,56.60
2018-05-12T06:49:52.071Z,55.90
2018-05-12T06:52:18.281Z,55.20
2018-05-12T06:54:45.154Z,54.80
2018-05-12T06:57:12.530Z,53.90
2018-05-12T06:59:40.089Z,53.60
2018-05-12T07:02:06.379Z,53.70
2018-05-12T07:04:32.928Z,54.40
2018-05-12T07:06:59.122Z,53.80
2018-05-12T07:09:26.008Z,53.40
2018-05-12T07:11:52.518Z,52.70
2018-05-12T07:14:20.594Z,52.10
2018-05-12T07:16:46.765Z,52.10
2018-05-12T07:19:12.989Z,51.60
2018-05-12T07:21:39.194Z,52.00
2018-05-12T07:24:06.416Z,52.40
2018-05-12T07:26:33.665Z,52.40
2018-05-12T07:29:00.306Z,52.10
2018-05-12T07:31:27.514Z,51.40
2018-05-12T07:33:54.516Z,51.40
2018-05-12T07:36:21.171Z,51.80
2018-05-12T07:38:47.977Z,51.60
2018-05-12T07:41:14.212Z,52.20
2018-05-12T07:43:40.672Z,52.50
2018-05-12T07:46:08.221Z,52.50
2018-05-12T07:48:34.736Z,52.50
2018-05-12T07:51:01.579Z,52.90
2018-05-12T07:53:28.327Z,52.80
2018-05-12T07:55:54.517Z,52.70
2018-05-12T07:58:21.517Z,52.90
2018-05-12T08:00:47.925Z,52.80
2018-05-12T08:03:15.149Z,51.70
2018-05-12T08:05:42.380Z,50.30
2018-05-12T08:08:09.583Z,50.30
2018-05-12T08:10:35.776Z,51.20
2018-05-12T08:13:03.393Z,50.50
2018-05-12T08:15:30.136Z,50.40
2018-05-12T08:17:56.928Z,50.60
2018-05-12T08:20:23.675Z,49.90
2018-05-12T08:22:50.186Z,49.80
2018-05-12T08:25:17.366Z,49.50
2018-05-12T08:27:43.664Z,49.50
2018-05-12T08:30:11.292Z,47.80
2018-05-12T08:32:37.479Z,47.80
2018-05-12T08:35:03.723Z,48.30
2018-05-12T08:37:30.323Z,48.70
2018-05-12T08:39:57.941Z,48.90
2018-05-12T08:42:25.185Z,48.90
2018-05-12T08:44:51.415Z,47.90
2018-05-12T08:47:18.653Z,47.60
2018-05-12T08:49:46.287Z,48.00
2018-05-12T08:52:12.569Z,47.90
2018-05-12T08:54:39.319Z,47.10
2018-05-12T08:57:06.665Z,48.20
2018-05-12T08:59:34.283Z,46.90
2018-05-12T09:02:00.616Z,46.90
2018-05-12T09:04:27.443Z,47.10
2018-05-12T09:06:54.235Z,47.10
2018-05-12T09:09:20.436Z,46.20
2018-05-12T09:11:46.647Z,46.20
2018-05-12T09:14:12.897Z,47.40
2018-05-12T09:16:39.387Z,46.50
2018-05-12T09:19:07.398Z,46.00
2018-05-12T09:21:34.165Z,45.90
2018-05-12T09:24:00.683Z,45.00
2018-05-12T09:26:28.232Z,44.60
2018-05-12T09:28:54.823Z,44.60
2018-05-12T09:31:22.737Z,44.40
2018-05-12T09:33:49.531Z,44.40
2018-05-12T09:36:17.034Z,43.90
2018-05-12T09:38:44.134Z,43.80
2018-05-12T09:41:11.069Z,44.10
2018-05-12T09:43:37.257Z,44.10
2018-05-12T09:46:03.790Z,44.30
2018-05-12T09:48:30.843Z,45.10
2018-05-12T09:50:57.653Z,45.00
2018-05-12T09:53:23.843Z,44.80
2018-05-12T09:55:50.665Z,45.60
2018-05-12T09:58:17.169Z,44.90
2018-05-12T10:00:45.223Z,43.60
2018-05-12T10:03:11.967Z,43.60
2018-05-12T10:05:38.161Z,43.30
2018-05-12T10:08:04.483Z,43.70
2018-05-12T10:10:32.546Z,42.50
2018-05-12T10:12:59.114Z,43.70
2018-05-12T10:15:26.239Z,43.00
2018-05-12T10:17:53.154Z,42.80
2018-05-12T10:20:19.892Z,42.10
2018-05-12T10:22:47.136Z,42.20
2018-05-12T10:25:13.905Z,42.40
2018-05-12T10:27:40.698Z,41.90
2018-05-12T10:30:09.000Z,41.70
2018-05-12T10:32:36.092Z,40.60
2018-05-12T10:35:02.306Z,40.50
2018-05-12T10:37:29.141Z,40.10
2018-05-12T10:39:55.424Z,40.70
2018-05-12T10:42:21.677Z,39.40
2018-05-12T10:44:47.906Z,40.80
2018-05-12T10:47:15.014Z,40.90
2018-05-12T10:49:42.322Z,40.60
2018-05-12T10:52:10.474Z,40.00
2018-05-12T10:54:36.648Z,40.00
2018-05-12T10:57:03.534Z,41.10
2018-05-12T10:59:30.875Z,40.00
2018-05-12T11:01:57.223Z,40.80
2018-05-12T11:04:24.177Z,39.90
2018-05-12T11:06:51.507Z,39.80
2018-05-12T11:09:17.711Z,39.80
2018-05-12T11:11:45.317Z,40.30
2018-05-12T11:14:11.996Z,40.30
2018-05-12T11:16:39.951Z,40.10
2018-05-12T11:19:06.149Z,40.10
2018-05-12T11:21:33.128Z,39.80
2018-05-12T11:24:00.579Z,40.00
2018-05-12T11:26:28.298Z,40.00
2018-05-12T11:28:54.501Z,37.80
2018-05-12T11:31:21.994Z,39.60
2018-05-12T11:33:48.184Z,40.10
2018-05-12T11:36:15.477Z,39.00
2018-05-12T11:38:43.159Z,38.80
2018-05-12T11:41:10.609Z,38.70
2018-05-12T11:43:37.376Z,38.60
2018-05-12T11:46:04.369Z,38.60
2018-05-12T11:48:31.557Z,38.20
2018-05-12T11:50:57.857Z,39.10
2018-05-12T11:53:24.686Z,38.00
2018-05-12T11:55:51.613Z,37.20
2018-05-12T11:58:18.062Z,37.80
2018-05-12T12:00:44.198Z,37.50
2018-05-12T12:03:10.756Z,37.60
2018-05-12T12:05:37.876Z,36.80
2018-05-12T12:08:04.338Z,36.80
2018-05-12T12:10:30.737Z,37.80
2018-05-12T12:12:58.177Z,38.10
2018-05-12T12:15:26.181Z,36.60
2018-05-12T12:17:52.401Z,37.10
2018-05-12T12:20:18.606Z,37.80
2018-05-12T12:22:46.261Z,37.50
2018-05-12T12:25:14.077Z,37.20
2018-05-12T12:27:41.023Z,37.20
2018-05-12T12:30:08.047Z,38.50
2018-05-12T12:32:34.348Z,38.50
2018-05-12T12:35:02.118Z,39.10
2018-05-12T12:37:28.351Z,39.00
2018-05-12T12:39:55.207Z,38.70
2018-05-12T12:42:22.199Z,39.40
2018-05-12T12:44:48.418Z,39.70
2018-05-12T12:47:15.219Z,40.20
2018-05-12T12:49:41.981Z,41.10
2018-05-12T12:52:08.209Z,41.30
2018-05-12T12:54:35.070Z,41.60
2018-05-12T12:57:01.406Z,40.50
2018-05-12T12:59:27.757Z,40.80
2018-05-12T13:01:55.250Z,41.00
2018-05-12T13:04:23.736Z,40.60
2018-05-12T13:06:50.160Z,40.50
2018-05-12T13:09:16.813Z,39.80
2018-05-12T13:11:43.841Z,40.60
2018-05-12T13:14:10.736Z,40.60
2018-05-12T13:16:37.340Z,40.90
2018-05-12T13:19:05.426Z,44.10
2018-05-12T13:21:31.735Z,44.10
2018-05-12T13:23:57.937Z,44.40
2018-05-12T13:26:25.445Z,45.00
2018-05-12T13:28:52.211Z,45.00
2018-05-12T13:31:20.353Z,43.80
2018-05-12T13:33:46.563Z,44.90
2018-05-12T13:36:13.687Z,44.90
2018-05-12T13:38:40.628Z,44.20
2018-05-12T13:41:08.513Z,43.30
2018-05-12T13:43:35.640Z,43.30
2018-05-12T13:46:02.751Z,43.80
2018-05-12T13:48:28.945Z,43.80
2018-05-12T13:50:55.122Z,44.70
2018-05-12T13:53:22.305Z,45.20
2018-05-12T13:55:48.631Z,44.90
2018-05-12T13:58:16.025Z,42.90
2018-05-12T14:00:43.243Z,42.90
2018-05-12T14:03:10.010Z,44.90
2018-05-12T14:05:36.686Z,46.00
2018-05-12T14:08:04.696Z,44.90
2018-05-12T14:10:30.925Z,44.90
2018-05-12T14:12:57.658Z,45.10
2018-05-12T14:15:24.401Z,43.60
2018-05-12T14:17:51.142Z,44.30
2018-05-12T14:20:17.886Z,42.30
2018-05-12T14:22:44.627Z,42.50
2018-05-12T14:25:11.289Z,39.30
2018-05-12T14:27:38.788Z,38.70
2018-05-12T14:30:05.088Z,38.60
2018-05-12T14:32:31.508Z,39.10
2018-05-12T14:34:58.946Z,39.30
2018-05-12T14:37:26.762Z,39.90
2018-05-12T14:39:53.867Z,39.90
2018-05-12T14:42:20.235Z,39.80
2018-05-12T14:44:46.450Z,40.30
2018-05-12T14:47:12.980Z,40.50
2018-05-12T14:49:40.252Z,39.70
2018-05-12T14:52:07.834Z,39.60
2018-05-12T14:54:34.082Z,39.60
2018-05-12T14:57:00.954Z,40.10
2018-05-12T14:59:27.180Z,38.90
2018-05-12T15:01:53.386Z,39.90
2018-05-12T15:04:19.566Z,40.70
2018-05-12T15:06:46.475Z,39.30
2018-05-12T15:09:12.699Z,38.40
2018-05-12T15:11:41.478Z,38.40
2018-05-12T15:14:08.782Z,38.20
2018-05-12T15:16:40.479Z,37.50
2018-05-12T15:19:06.693Z,37.50
2018-05-12T15:21:32.893Z,37.90
2018-05-12T15:23:59.998Z,37.80
2018-05-12T15:26:26.277Z,38.30
2018-05-12T15:28:52.938Z,37.50
2018-05-12T15:31:19.880Z,38.80
2018-05-12T15:33:47.038Z,39.00
2018-05-12T15:36:13.929Z,39.00
2018-05-12T15:38:40.901Z,39.00
2018-05-12T15:41:08.055Z,39.20
2018-05-12T15:43:35.040Z,39.60
2018-05-12T15:46:01.845Z,39.60
2018-05-12T15:48:29.401Z,38.90
2018-05-12T15:50:56.349Z,39.30
2018-05-12T15:53:23.294Z,40.30
2018-05-12T15:55:50.220Z,39.50
2018-05-12T15:58:17.376Z,39.40
2018-05-12T16:00:43.577Z,39.80
2018-05-12T16:03:09.853Z,40.00
2018-05-12T16:05:35.976Z,40.90
2018-05-12T16:08:03.646Z,41.60
2018-05-12T16:10:30.702Z,41.20
2018-05-12T16:12:56.877Z,41.10
2018-05-12T16:15:23.098Z,40.80
2018-05-12T16:17:49.322Z,40.70
2018-05-12T16:20:16.537Z,41.20
2018-05-12T16:22:43.355Z,41.10
2018-05-12T16:25:10.321Z,40.10
2018-05-12T16:27:37.011Z,40.10
2018-05-12T16:30:04.018Z,40.30
2018-05-12T16:32:30.534Z,40.30
2018-05-12T16:34:56.883Z,40.10
2018-05-12T16:37:24.336Z,40.10
2018-05-12T16:39:50.750Z,40.50
2018-05-12T16:42:16.941Z,39.70
2018-05-12T16:44:43.207Z,40.00
2018-05-12T16:47:09.878Z,40.10
2018-05-12T16:49:36.093Z,40.10
2018-05-12T16:52:02.690Z,39.80
2018-05-12T16:54:29.666Z,40.10
2018-05-12T16:56:56.847Z,40.10
2018-05-12T16:59:23.537Z,40.40
2018-05-12T17:01:51.261Z,40.60
2018-05-12T17:04:18.699Z,40.60
2018-05-12T17:06:44.942Z,40.70
2018-05-12T17:09:11.130Z,40.80
2018-05-12T17:11:37.433Z,40.90
2018-05-12T17:14:04.398Z,41.40
2018-05-12T17:16:30.912Z,41.40
2018-05-12T17:18:57.953Z,41.30
2018-05-12T17:21:25.038Z,41.70
2018-05-12T17:23:52.324Z,41.60
2018-05-12T17:26:18.535Z,42.20
2018-05-12T17:28:44.768Z,42.20
2018-05-12T17:31:11.062Z,42.10
2018-05-12T17:33:37.284Z,42.40
2018-05-12T17:36:03.526Z,42.80
2018-05-12T17:38:29.739Z,42.60
2018-05-12T17:40:56.604Z,42.60
2018-05-12T17:43:23.673Z,42.60
2018-05-12T17:45:50.109Z,42.50
2018-05-12T17:48:17.376Z,42.50
2018-05-12T17:50:45.016Z,42.90
2018-05-12T17:53:12.139Z,42.80
2018-05-12T17:55:38.919Z,42.40
2018-05-12T17:58:06.372Z,42.60
2018-05-12T18:00:33.683Z,42.50
2018-05-12T18:03:00.210Z,42.70
2018-05-12T18:05:32.968Z,43.80
2018-05-12T18:07:59.223Z,43.20
2018-05-12T18:10:26.168Z,43.40
2018-05-12T18:12:52.376Z,43.30
2018-05-12T18:15:19.403Z,43.50
2018-05-12T18:17:45.760Z,43.40
2018-05-12T18:20:12.891Z,43.70
2018-05-12T18:22:40.798Z,43.90
2018-05-12T18:25:07.392Z,43.90
2018-05-12T18:27:34.919Z,43.60
2018-05-12T18:30:01.356Z,43.60
2018-05-12T18:32:28.537Z,43.90
2018-05-12T18:34:54.834Z,44.10
2018-05-12T18:37:22.098Z,44.30
2018-05-12T18:39:48.510Z,45.00
2018-05-12T18:42:15.430Z,44.60
2018-05-12T18:44:41.739Z,44.60
2018-05-12T18:47:09.120Z,44.90
2018-05-12T18:49:35.688Z,44.90
2018-05-12T18:52:03.005Z,45.20
2018-05-12T18:54:29.805Z,45.10
2018-05-12T18:56:56.005Z,45.70
2018-05-12T18:59:22.858Z,46.90
2018-05-12T19:01:49.480Z,46.50
2018-05-12T19:04:16.466Z,46.70
2018-05-12T19:06:44.186Z,46.60
2018-05-12T19:09:10.809Z,46.60
2018-05-12T19:11:37.736Z,47.10
2018-05-12T19:14:04.589Z,47.60
2018-05-12T19:16:31.024Z,48.30
2018-05-12T19:18:57.246Z,48.60
2018-05-12T19:21:24.040Z,48.80
2018-05-12T19:23:50.380Z,49.10
2018-05-12T19:26:17.158Z,49.50
2018-05-12T19:28:43.710Z,49.60
2018-05-12T19:31:10.695Z,50.00
2018-05-12T19:33:36.888Z,50.20
2018-05-12T19:36:04.071Z,49.90
2018-05-12T19:38:31.146Z,50.00
2018-05-12T19:40:58.609Z,50.60
2018-05-12T19:43:26.226Z,50.60
2018-05-12T19:45:52.748Z,50.60
2018-05-12T19:48:20.068Z,50.50
2018-05-12T19:50:46.297Z,50.50
2018-05-12T19:53:12.723Z,50.70
2018-05-12T19:55:39.463Z,50.60
2018-05-12T19:58:06.726Z,50.50
2018-05-12T20:00:33.798Z,50.70
2018-05-12T20:03:00.056Z,50.70
2018-05-12T20:05:26.250Z,50.50
2018-05-12T20:07:52.463Z,50.60
2018-05-12T20:10:18.697Z,50.50
2018-05-12T20:12:46.033Z,50.70
2018-05-12T20:15:12.296Z,50.70
2018-05-12T20:17:39.270Z,50.80
2018-05-12T20:20:05.724Z,51.30
2018-05-12T20:22:33.154Z,51.40
2018-05-12T20:24:59.899Z,51.40
2018-05-12T20:27:26.617Z,51.70
2018-05-12T20:29:53.412Z,51.70
2018-05-12T20:32:20.031Z,51.60
2018-05-12T20:34:46.987Z,51.70
2018-05-12T20:37:13.957Z,51.80
2018-05-12T20:39:40.189Z,51.80
2018-05-12T20:42:06.470Z,52.00
2018-05-12T20:44:33.454Z,52.30
2018-05-12T20:46:59.708Z,52.30
2018-05-12T20:49:25.920Z,52.30
2018-05-12T20:51:52.204Z,52.30
2018-05-12T20:54:19.962Z,52.30
2018-05-12T20:56:46.906Z,52.50
2018-05-12T20:59:14.168Z,52.40
2018-05-12T21:01:40.961Z,52.50
2018-05-12T21:04:08.181Z,52.60
2018-05-12T21:06:34.926Z,52.80
2018-05-12T21:09:02.345Z,52.70
2018-05-12T21:11:28.872Z,52.50
2018-05-12T21:13:55.949Z,52.90
2018-05-12T21:16:23.027Z,53.00
2018-05-12T21:18:49.763Z,53.00
2018-05-12T21:21:16.355Z,53.00
2018-05-12T21:23:44.353Z,53.00
2018-05-12T21:26:11.387Z,53.00
2018-05-12T21:28:38.634Z,53.00
2018-05-12T21:31:07.053Z,53.30
2018-05-12T21:33:33.846Z,53.30
2018-05-12T21:36:01.868Z,53.30
2018-05-12T21:38:28.200Z,53.30
2018-05-12T21:40:54.920Z,53.10
2018-05-12T21:43:21.361Z,53.30
2018-05-12T21:45:48.111Z,53.60
2018-05-12T21:48:15.117Z,54.00
2018-05-12T21:50:42.035Z,53.80
2018-05-12T21:53:08.604Z,53.80
2018-05-12T21:55:35.708Z,54.00
2018-05-12T21:58:03.049Z,54.00
2018-05-12T22:00:29.911Z,54.00
2018-05-12T22:02:56.133Z,53.70
2018-05-12T22:05:22.375Z,53.80
2018-05-12T22:07:49.307Z,53.90
2018-05-12T22:10:16.451Z,54.00
2018-05-12T22:12:42.751Z,54.40
2018-05-12T22:15:08.962Z,54.10
2018-05-12T22:17:35.711Z,54.30
2018-05-12T22:20:02.361Z,54.50
2018-05-12T22:22:29.370Z,54.60
2018-05-12T22:24:56.914Z,55.20
2018-05-12T22:27:23.653Z,54.70
2018-05-12T22:29:49.876Z,54.90
2018-05-12T22:32:16.098Z,55.00
2018-05-12T22:34:42.349Z,54.90
2018-05-12T22:37:09.307Z,54.70
2018-05-12T22:39:36.528Z,55.10
2018-05-12T22:42:04.464Z,55.40
2018-05-12T22:44:33.704Z,55.40
2018-05-12T22:47:00.212Z,55.60
2018-05-12T22:49:27.325Z,55.60
2018-05-12T22:51:54.705Z,55.50
2018-05-12T22:54:21.473Z,55.50
2018-05-12T22:56:48.240Z,55.50
2018-05-12T22:59:15.188Z,55.70
2018-05-12T23:04:15.251Z,55.70
2018-05-12T23:06:42.090Z,55.50
2018-05-12T23:09:08.629Z,55.70
2018-05-12T23:11:35.930Z,55.60
2018-05-12T23:14:02.901Z,55.80
2018-05-12T23:16:30.159Z,55.80
2018-05-12T23:18:56.379Z,55.70
2018-05-12T23:21:23.324Z,55.40
2018-05-12T23:23:49.565Z,55.40
2018-05-12T23:26:15.922Z,55.60
2018-05-12T23:28:43.543Z,55.70
2018-05-12T23:31:10.867Z,55.60
2018-05-12T23:33:37.568Z,55.50
2018-05-12T23:36:04.763Z,55.50
2018-05-12T23:38:32.422Z,55.40
2018-05-12T23:40:58.933Z,55.30
2018-05-12T23:43:25.917Z,55.30
2018-05-12T23:45:53.316Z,55.20
2018-05-12T23:48:20.185Z,55.20
2018-05-12T23:50:47.376Z,55.40
2018-05-12T23:53:15.844Z,55.70
2018-05-12T23:55:43.353Z,55.70
2018-05-12T23:58:09.600Z,55.70
